sensor_id;sensor_type;location;lat;lon;timestamp;pressure;altitude;pressure_sealevel;temperature;humidity
75317;BME280;63913;51.492;10.368;2024-03-08T00:01:47;98876.78;;;1.03;80.38
75317;BME280;63913;51.492;10.368;2024-03-08T00:04:13;98874.94;;;1.14;79.55
75317;BME280;63913;51.492;10.368;2024-03-08T00:06:38;98869.19;;;1.17;79.06
75317;BME280;63913;51.492;10.368;2024-03-08T00:09:04;98870.06;;;1.04;79.12
75317;BME280;63913;51.492;10.368;2024-03-08T00:11:33;98853.03;;;1.14;79.21
75317;BME280;63913;51.492;10.368;2024-03-08T00:13:59;98860.44;;;1.25;78.86
75317;BME280;63913;51.492;10.368;2024-03-08T00:16:24;98857.41;;;1.30;78.46
75317;BME280;63913;51.492;10.368;2024-03-08T00:18:49;98860.06;;;1.19;78.66
75317;BME280;63913;51.492;10.368;2024-03-08T00:21:15;98852.56;;;1.20;79.15
75317;BME280;63913;51.492;10.368;2024-03-08T00:23:40;98855.06;;;1.07;78.85
75317;BME280;63913;51.492;10.368;2024-03-08T00:26:06;98848.72;;;1.00;79.03
75317;BME280;63913;51.492;10.368;2024-03-08T00:28:32;98843.97;;;1.05;79.41
75317;BME280;63913;51.492;10.368;2024-03-08T00:30:59;98852.47;;;1.05;78.61
75317;BME280;63913;51.492;10.368;2024-03-08T00:33:25;98848.06;;;1.16;78.17
75317;BME280;63913;51.492;10.368;2024-03-08T00:35:50;98853.72;;;1.12;78.17
75317;BME280;63913;51.492;10.368;2024-03-08T00:38:16;98846.31;;;1.15;78.06
75317;BME280;63913;51.492;10.368;2024-03-08T00:40:41;98847.06;;;1.14;78.30
75317;BME280;63913;51.492;10.368;2024-03-08T00:43:07;98852.47;;;1.05;78.48
75317;BME280;63913;51.492;10.368;2024-03-08T00:45:32;98846.31;;;1.02;79.37
75317;BME280;63913;51.492;10.368;2024-03-08T00:47:57;98840.47;;;1.03;80.00
75317;BME280;63913;51.492;10.368;2024-03-08T00:50:23;98840.38;;;1.01;80.11
75317;BME280;63913;51.492;10.368;2024-03-08T00:52:48;98836.56;;;0.95;80.52
75317;BME280;63913;51.492;10.368;2024-03-08T00:55:13;98836.06;;;1.00;80.38
75317;BME280;63913;51.492;10.368;2024-03-08T00:57:39;98832.00;;;1.02;80.46
75317;BME280;63913;51.492;10.368;2024-03-08T01:00:06;98829.16;;;0.98;80.36
75317;BME280;63913;51.492;10.368;2024-03-08T01:02:35;98825.78;;;0.97;80.49
75317;BME280;63913;51.492;10.368;2024-03-08T01:05:01;98823.25;;;0.97;80.49
75317;BME280;63913;51.492;10.368;2024-03-08T01:07:26;98823.31;;;0.99;80.41
75317;BME280;63913;51.492;10.368;2024-03-08T01:09:52;98821.47;;;0.96;80.56
75317;BME280;63913;51.492;10.368;2024-03-08T01:12:17;98812.03;;;0.94;81.01
75317;BME280;63913;51.492;10.368;2024-03-08T01:14:43;98817.59;;;0.88;81.33
75317;BME280;63913;51.492;10.368;2024-03-08T01:17:08;98811.22;;;0.82;81.97
75317;BME280;63913;51.492;10.368;2024-03-08T01:19:35;98797.63;;;0.80;82.15
75317;BME280;63913;51.492;10.368;2024-03-08T01:22:00;98796.53;;;0.76;82.75
75317;BME280;63913;51.492;10.368;2024-03-08T01:24:25;98798.66;;;0.83;82.66
75317;BME280;63913;51.492;10.368;2024-03-08T01:26:51;98791.84;;;0.82;82.98
75317;BME280;63913;51.492;10.368;2024-03-08T01:29:16;98792.28;;;0.88;82.78
75317;BME280;63913;51.492;10.368;2024-03-08T01:31:42;98784.69;;;0.88;82.57
75317;BME280;63913;51.492;10.368;2024-03-08T01:34:07;98776.78;;;0.84;82.45
75317;BME280;63913;51.492;10.368;2024-03-08T01:36:33;98777.56;;;0.83;82.42
75317;BME280;63913;51.492;10.368;2024-03-08T01:38:58;98780.97;;;0.83;82.70
75317;BME280;63913;51.492;10.368;2024-03-08T01:41:23;98773.19;;;0.80;82.51
75317;BME280;63913;51.492;10.368;2024-03-08T01:43:49;98771.31;;;0.77;82.77
75317;BME280;63913;51.492;10.368;2024-03-08T01:46:17;98760.63;;;0.68;83.01
75317;BME280;63913;51.492;10.368;2024-03-08T01:48:44;98756.63;;;0.72;82.57
75317;BME280;63913;51.492;10.368;2024-03-08T01:51:10;98754.50;;;0.78;82.85
75317;BME280;63913;51.492;10.368;2024-03-08T01:53:37;98747.19;;;0.69;82.98
75317;BME280;63913;51.492;10.368;2024-03-08T01:56:03;98737.47;;;0.62;83.41
75317;BME280;63913;51.492;10.368;2024-03-08T01:58:29;98736.09;;;0.67;83.06
75317;BME280;63913;51.492;10.368;2024-03-08T02:00:56;98739.09;;;0.62;83.38
75317;BME280;63913;51.492;10.368;2024-03-08T02:03:23;98727.22;;;0.61;83.44
75317;BME280;63913;51.492;10.368;2024-03-08T02:05:49;98733.44;;;0.66;83.18
75317;BME280;63913;51.492;10.368;2024-03-08T02:08:15;98731.41;;;0.60;83.44
75317;BME280;63913;51.492;10.368;2024-03-08T02:10:41;98729.09;;;0.63;83.13
75317;BME280;63913;51.492;10.368;2024-03-08T02:13:07;98728.00;;;0.60;83.40
75317;BME280;63913;51.492;10.368;2024-03-08T02:15:52;98734.16;;;0.63;83.09
75317;BME280;63913;51.492;10.368;2024-03-08T02:18:18;98735.09;;;0.65;82.95
75317;BME280;63913;51.492;10.368;2024-03-08T02:20:45;98732.50;;;0.64;82.99
75317;BME280;63913;51.492;10.368;2024-03-08T02:23:13;98716.63;;;0.53;83.19
75317;BME280;63913;51.492;10.368;2024-03-08T02:25:39;98719.53;;;0.59;83.07
75317;BME280;63913;51.492;10.368;2024-03-08T02:28:04;98714.88;;;0.52;83.32
75317;BME280;63913;51.492;10.368;2024-03-08T02:30:30;98704.84;;;0.54;83.32
75317;BME280;63913;51.492;10.368;2024-03-08T02:32:55;98709.53;;;0.61;82.61
75317;BME280;63913;51.492;10.368;2024-03-08T02:35:21;98714.00;;;0.52;83.00
75317;BME280;63913;51.492;10.368;2024-03-08T02:37:46;98708.75;;;0.49;83.66
75317;BME280;63913;51.492;10.368;2024-03-08T02:40:13;98713.00;;;0.50;83.66
75317;BME280;63913;51.492;10.368;2024-03-08T02:42:39;98702.50;;;0.44;83.51
75317;BME280;63913;51.492;10.368;2024-03-08T02:45:04;98705.69;;;0.41;83.64
75317;BME280;63913;51.492;10.368;2024-03-08T02:47:31;98702.41;;;0.42;83.76
75317;BME280;63913;51.492;10.368;2024-03-08T02:49:56;98697.72;;;0.35;83.94
75317;BME280;63913;51.492;10.368;2024-03-08T02:52:22;98698.59;;;0.35;84.00
75317;BME280;63913;51.492;10.368;2024-03-08T02:54:48;98696.41;;;0.40;83.62
75317;BME280;63913;51.492;10.368;2024-03-08T02:57:13;98700.66;;;0.41;83.63
75317;BME280;63913;51.492;10.368;2024-03-08T02:59:39;98698.81;;;0.38;83.61
75317;BME280;63913;51.492;10.368;2024-03-08T03:02:05;98694.81;;;0.42;83.64
75317;BME280;63913;51.492;10.368;2024-03-08T03:04:32;98694.91;;;0.44;83.55
75317;BME280;63913;51.492;10.368;2024-03-08T03:06:58;98698.22;;;0.43;83.79
75317;BME280;63913;51.492;10.368;2024-03-08T03:09:23;98690.47;;;0.40;83.98
75317;BME280;63913;51.492;10.368;2024-03-08T03:11:55;98689.47;;;0.37;84.13
75317;BME280;63913;51.492;10.368;2024-03-08T03:14:22;98692.28;;;0.42;84.21
75317;BME280;63913;51.492;10.368;2024-03-08T03:16:47;98690.84;;;0.32;84.45
75317;BME280;63913;51.492;10.368;2024-03-08T03:19:13;98686.56;;;0.31;84.88
75317;BME280;63913;51.492;10.368;2024-03-08T03:21:38;98678.97;;;0.31;84.77
75317;BME280;63913;51.492;10.368;2024-03-08T03:24:04;98691.41;;;0.28;85.04
75317;BME280;63913;51.492;10.368;2024-03-08T03:26:38;98678.28;;;0.21;85.44
75317;BME280;63913;51.492;10.368;2024-03-08T03:29:07;98676.22;;;0.15;85.82
75317;BME280;63913;51.492;10.368;2024-03-08T03:31:34;98682.25;;;0.17;85.97
75317;BME280;63913;51.492;10.368;2024-03-08T03:34:00;98678.34;;;0.09;86.46
75317;BME280;63913;51.492;10.368;2024-03-08T03:36:28;98677.00;;;0.14;86.32
75317;BME280;63913;51.492;10.368;2024-03-08T03:38:54;98687.13;;;0.14;85.97
75317;BME280;63913;51.492;10.368;2024-03-08T03:41:30;98675.81;;;0.09;86.30
75317;BME280;63913;51.492;10.368;2024-03-08T03:43:56;98674.75;;;0.19;85.95
75317;BME280;63913;51.492;10.368;2024-03-08T03:46:21;98680.97;;;0.11;85.95
75317;BME280;63913;51.492;10.368;2024-03-08T03:48:46;98674.75;;;0.06;86.33
75317;BME280;63913;51.492;10.368;2024-03-08T03:51:12;98668.22;;;0.09;85.75
75317;BME280;63913;51.492;10.368;2024-03-08T03:53:37;98674.38;;;0.13;85.64
75317;BME280;63913;51.492;10.368;2024-03-08T03:56:03;98677.66;;;0.12;85.94
75317;BME280;63913;51.492;10.368;2024-03-08T03:58:32;98671.34;;;0.05;86.17
75317;BME280;63913;51.492;10.368;2024-03-08T04:00:58;98672.72;;;0.00;86.27
75317;BME280;63913;51.492;10.368;2024-03-08T04:03:23;98662.50;;;-0.02;86.44
75317;BME280;63913;51.492;10.368;2024-03-08T04:05:48;98669.59;;;0.04;86.14
75317;BME280;63913;51.492;10.368;2024-03-08T04:08:14;98660.25;;;0.03;86.20
75317;BME280;63913;51.492;10.368;2024-03-08T04:10:40;98657.53;;;0.00;86.33
75317;BME280;63913;51.492;10.368;2024-03-08T04:13:07;98668.09;;;-0.06;86.73
75317;BME280;63913;51.492;10.368;2024-03-08T04:15:34;98661.28;;;-0.07;86.76
75317;BME280;63913;51.492;10.368;2024-03-08T04:18:00;98664.59;;;-0.08;86.78
75317;BME280;63913;51.492;10.368;2024-03-08T04:20:25;98662.38;;;-0.03;86.69
75317;BME280;63913;51.492;10.368;2024-03-08T04:22:51;98660.63;;;-0.04;86.75
75317;BME280;63913;51.492;10.368;2024-03-08T04:25:16;98664.59;;;-0.08;87.05
75317;BME280;63913;51.492;10.368;2024-03-08T04:27:42;98662.06;;;-0.08;87.00
75317;BME280;63913;51.492;10.368;2024-03-08T04:30:08;98665.47;;;-0.07;87.02
75317;BME280;63913;51.492;10.368;2024-03-08T04:32:34;98662.75;;;-0.10;86.81
75317;BME280;63913;51.492;10.368;2024-03-08T04:34:59;98655.94;;;-0.11;87.16
75317;BME280;63913;51.492;10.368;2024-03-08T04:37:27;98653.72;;;-0.07;86.82
75317;BME280;63913;51.492;10.368;2024-03-08T04:39:55;98656.44;;;-0.04;86.19
75317;BME280;63913;51.492;10.368;2024-03-08T04:42:20;98655.47;;;-0.06;86.48
75317;BME280;63913;51.492;10.368;2024-03-08T04:44:45;98645.06;;;-0.10;86.63
75317;BME280;63913;51.492;10.368;2024-03-08T04:47:11;98655.28;;;-0.09;86.58
75317;BME280;63913;51.492;10.368;2024-03-08T04:49:36;98652.66;;;-0.10;87.08
75317;BME280;63913;51.492;10.368;2024-03-08T04:52:03;98651.66;;;-0.12;86.90
75317;BME280;63913;51.492;10.368;2024-03-08T04:54:29;98645.75;;;-0.13;87.07
75317;BME280;63913;51.492;10.368;2024-03-08T04:56:54;98644.97;;;-0.12;86.76
75317;BME280;63913;51.492;10.368;2024-03-08T04:59:20;98643.88;;;-0.15;86.66
75317;BME280;63913;51.492;10.368;2024-03-08T05:01:45;98636.13;;;-0.18;86.99
75317;BME280;63913;51.492;10.368;2024-03-08T05:04:10;98627.84;;;-0.16;86.85
75317;BME280;63913;51.492;10.368;2024-03-08T05:06:38;98634.34;;;-0.19;87.07
75317;BME280;63913;51.492;10.368;2024-03-08T05:09:04;98632.81;;;-0.17;86.80
75317;BME280;63913;51.492;10.368;2024-03-08T05:11:45;98640.47;;;-0.16;86.99
75317;BME280;63913;51.492;10.368;2024-03-08T05:14:11;98640.47;;;-0.16;87.07
75317;BME280;63913;51.492;10.368;2024-03-08T05:16:43;98632.59;;;-0.20;87.44
75317;BME280;63913;51.492;10.368;2024-03-08T05:19:08;98633.69;;;-0.17;87.07
75317;BME280;63913;51.492;10.368;2024-03-08T05:21:33;98641.22;;;-0.30;87.83
75317;BME280;63913;51.492;10.368;2024-03-08T05:23:58;98633.19;;;-0.24;87.30
75317;BME280;63913;51.492;10.368;2024-03-08T05:26:24;98642.41;;;-0.25;87.44
75317;BME280;63913;51.492;10.368;2024-03-08T05:28:49;98633.97;;;-0.25;87.53
75317;BME280;63913;51.492;10.368;2024-03-08T05:31:20;98635.72;;;-0.24;87.64
75317;BME280;63913;51.492;10.368;2024-03-08T05:33:47;98630.34;;;-0.29;87.87
75317;BME280;63913;51.492;10.368;2024-03-08T05:36:12;98637.16;;;-0.28;87.88
75317;BME280;63913;51.492;10.368;2024-03-08T05:38:40;98635.41;;;-0.29;87.87
75317;BME280;63913;51.492;10.368;2024-03-08T05:41:07;98633.84;;;-0.27;88.16
75317;BME280;63913;51.492;10.368;2024-03-08T05:43:33;98633.09;;;-0.26;87.87
75317;BME280;63913;51.492;10.368;2024-03-08T05:45:58;98632.97;;;-0.27;87.94
75317;BME280;63913;51.492;10.368;2024-03-08T05:48:23;98631.22;;;-0.28;87.86
75317;BME280;63913;51.492;10.368;2024-03-08T05:50:50;98634.53;;;-0.29;88.34
75317;BME280;63913;51.492;10.368;2024-03-08T05:53:15;98624.31;;;-0.31;88.32
75317;BME280;63913;51.492;10.368;2024-03-08T05:55:41;98632.00;;;-0.29;88.00
75317;BME280;63913;51.492;10.368;2024-03-08T05:58:06;98630.34;;;-0.29;88.40
75317;BME280;63913;51.492;10.368;2024-03-08T06:00:33;98629.56;;;-0.28;88.28
75317;BME280;63913;51.492;10.368;2024-03-08T06:02:59;98627.53;;;-0.33;88.76
75317;BME280;63913;51.492;10.368;2024-03-08T06:05:24;98627.22;;;-0.38;89.00
75317;BME280;63913;51.492;10.368;2024-03-08T06:07:50;98628.31;;;-0.34;88.61
75317;BME280;63913;51.492;10.368;2024-03-08T06:10:18;98634.22;;;-0.34;88.92
75317;BME280;63913;51.492;10.368;2024-03-08T06:12:46;98629.28;;;-0.32;88.96
75317;BME280;63913;51.492;10.368;2024-03-08T06:15:12;98633.34;;;-0.34;89.03
75317;BME280;63913;51.492;10.368;2024-03-08T06:17:41;98630.06;;;-0.33;89.27
75317;BME280;63913;51.492;10.368;2024-03-08T06:20:07;98642.00;;;-0.31;88.94
75317;BME280;63913;51.492;10.368;2024-03-08T06:22:39;98632.00;;;-0.29;89.03
75317;BME280;63913;51.492;10.368;2024-03-08T06:25:07;98637.16;;;-0.28;89.12
75317;BME280;63913;51.492;10.368;2024-03-08T06:27:35;98636.78;;;-0.21;88.87
75317;BME280;63913;51.492;10.368;2024-03-08T06:30:01;98629.69;;;-0.26;88.82
75317;BME280;63913;51.492;10.368;2024-03-08T06:32:27;98628.59;;;-0.30;89.15
75317;BME280;63913;51.492;10.368;2024-03-08T06:34:52;98622.94;;;-0.39;89.27
75317;BME280;63913;51.492;10.368;2024-03-08T06:37:18;98633.84;;;-0.27;89.44
75317;BME280;63913;51.492;10.368;2024-03-08T06:39:50;98635.03;;;-0.22;89.47
75317;BME280;63913;51.492;10.368;2024-03-08T06:42:17;98633.84;;;-0.27;89.27
75317;BME280;63913;51.492;10.368;2024-03-08T06:44:42;98632.97;;;-0.27;89.70
75317;BME280;63913;51.492;10.368;2024-03-08T06:47:17;98635.19;;;-0.32;89.81
75317;BME280;63913;51.492;10.368;2024-03-08T06:49:43;98634.75;;;-0.26;89.86
75317;BME280;63913;51.492;10.368;2024-03-08T06:52:11;98633.63;;;-0.30;89.80
75317;BME280;63913;51.492;10.368;2024-03-08T06:54:36;98642.50;;;-0.23;89.70
75317;BME280;63913;51.492;10.368;2024-03-08T06:57:03;98631.44;;;-0.25;90.07
75317;BME280;63913;51.492;10.368;2024-03-08T06:59:29;98618.31;;;-0.33;90.22
75317;BME280;63913;51.492;10.368;2024-03-08T07:01:54;98621.50;;;-0.22;89.97
75317;BME280;63913;51.492;10.368;2024-03-08T07:04:20;98632.59;;;-0.20;90.21
75317;BME280;63913;51.492;10.368;2024-03-08T07:06:47;98629.00;;;-0.24;90.33
75317;BME280;63913;51.492;10.368;2024-03-08T07:09:15;98627.44;;;-0.22;90.37
75317;BME280;63913;51.492;10.368;2024-03-08T07:11:42;98622.59;;;-0.19;90.24
75317;BME280;63913;51.492;10.368;2024-03-08T07:14:07;98610.25;;;-0.27;90.57
75317;BME280;63913;51.492;10.368;2024-03-08T07:16:35;98605.97;;;-0.28;90.16
75317;BME280;63913;51.492;10.368;2024-03-08T07:19:05;98616.09;;;-0.15;90.53
75317;BME280;63913;51.492;10.368;2024-03-08T07:21:30;98614.25;;;-0.18;90.45
75317;BME280;63913;51.492;10.368;2024-03-08T07:23:56;98617.84;;;-0.14;90.29
75317;BME280;63913;51.492;10.368;2024-03-08T07:26:25;98611.84;;;-0.16;90.51
75317;BME280;63913;51.492;10.368;2024-03-08T07:28:50;98600.94;;;-0.15;90.34
75317;BME280;63913;51.492;10.368;2024-03-08T07:31:16;98608.34;;;-0.05;90.35
75317;BME280;63913;51.492;10.368;2024-03-08T07:34:00;98604.66;;;0.03;90.23
75317;BME280;63913;51.492;10.368;2024-03-08T07:36:25;98589.22;;;-0.02;89.96
75317;BME280;63913;51.492;10.368;2024-03-08T07:38:51;98608.44;;;0.10;89.93
75317;BME280;63913;51.492;10.368;2024-03-08T07:41:16;98601.84;;;0.12;90.01
75317;BME280;63913;51.492;10.368;2024-03-08T07:43:41;98594.56;;;0.16;89.65
75317;BME280;63913;51.492;10.368;2024-03-08T07:46:07;98600.00;;;0.22;89.27
75317;BME280;63913;51.492;10.368;2024-03-08T07:48:35;98592.59;;;0.25;89.61
75317;BME280;63913;51.492;10.368;2024-03-08T07:51:02;98592.13;;;0.31;89.05
75317;BME280;63913;51.492;10.368;2024-03-08T07:53:28;98589.59;;;0.31;89.26
75317;BME280;63913;51.492;10.368;2024-03-08T07:55:53;98584.06;;;0.36;88.89
75317;BME280;63913;51.492;10.368;2024-03-08T07:58:19;98585.50;;;0.46;89.15
75317;BME280;63913;51.492;10.368;2024-03-08T08:00:44;98585.22;;;0.55;88.41
75317;BME280;63913;51.492;10.368;2024-03-08T08:03:10;98569.31;;;0.57;88.33
75317;BME280;63913;51.492;10.368;2024-03-08T08:05:35;98569.00;;;0.66;88.33
75317;BME280;63913;51.492;10.368;2024-03-08T08:08:02;98566.78;;;0.70;87.80
75317;BME280;63913;51.492;10.368;2024-03-08T08:10:32;98577.16;;;0.75;88.01
75317;BME280;63913;51.492;10.368;2024-03-08T08:12:58;98575.81;;;0.80;87.83
75317;BME280;63913;51.492;10.368;2024-03-08T08:15:23;98569.09;;;0.81;87.73
75317;BME280;63913;51.492;10.368;2024-03-08T08:17:49;98568.78;;;0.89;87.46
75317;BME280;63913;51.492;10.368;2024-03-08T08:20:14;98571.22;;;0.88;87.74
75317;BME280;63913;51.492;10.368;2024-03-08T08:22:41;98568.69;;;0.88;87.84
75317;BME280;63913;51.492;10.368;2024-03-08T08:25:08;98558.06;;;0.93;87.44
75317;BME280;63913;51.492;10.368;2024-03-08T08:27:34;98567.59;;;0.97;87.19
75317;BME280;63913;51.492;10.368;2024-03-08T08:29:59;98560.16;;;1.00;87.12
75317;BME280;63913;51.492;10.368;2024-03-08T08:32:25;98557.13;;;1.06;86.90
75317;BME280;63913;51.492;10.368;2024-03-08T08:34:51;98555.47;;;1.06;86.93
75317;BME280;63913;51.492;10.368;2024-03-08T08:37:17;98552.06;;;1.06;86.55
75317;BME280;63913;51.492;10.368;2024-03-08T08:39:43;98550.00;;;1.13;87.00
75317;BME280;63913;51.492;10.368;2024-03-08T08:42:08;98555.44;;;1.20;87.13
75317;BME280;63913;51.492;10.368;2024-03-08T08:44:35;98549.66;;;1.22;87.22
75317;BME280;63913;51.492;10.368;2024-03-08T08:47:01;98534.75;;;1.27;86.55
75317;BME280;63913;51.492;10.368;2024-03-08T08:49:26;98549.25;;;1.29;86.24
75317;BME280;63913;51.492;10.368;2024-03-08T08:51:52;98542.88;;;1.36;85.68
75317;BME280;63913;51.492;10.368;2024-03-08T08:54:18;98543.03;;;1.39;86.66
75317;BME280;63913;51.492;10.368;2024-03-08T08:56:43;98542.63;;;1.46;86.72
75317;BME280;63913;51.492;10.368;2024-03-08T08:59:09;98529.34;;;1.50;86.06
75317;BME280;63913;51.492;10.368;2024-03-08T09:01:39;98528.22;;;1.60;86.24
75317;BME280;63913;51.492;10.368;2024-03-08T09:04:04;98534.94;;;1.74;85.85
75317;BME280;63913;51.492;10.368;2024-03-08T09:06:29;98529.63;;;1.84;85.16
75317;BME280;63913;51.492;10.368;2024-03-08T09:08:55;98529.34;;;1.94;84.31
75317;BME280;63913;51.492;10.368;2024-03-08T09:11:20;98526.19;;;1.98;84.00
75317;BME280;63913;51.492;10.368;2024-03-08T09:13:45;98518.03;;;2.04;84.03
75317;BME280;63913;51.492;10.368;2024-03-08T09:16:14;98517.34;;;2.06;83.51
75317;BME280;63913;51.492;10.368;2024-03-08T09:18:39;98501.59;;;2.12;84.27
75317;BME280;63913;51.492;10.368;2024-03-08T09:21:06;98505.09;;;2.14;83.50
75317;BME280;63913;51.492;10.368;2024-03-08T09:23:35;98499.22;;;2.15;83.24
75317;BME280;63913;51.492;10.368;2024-03-08T09:26:00;98482.94;;;2.26;82.84
75317;BME280;63913;51.492;10.368;2024-03-08T09:28:26;98487.22;;;2.27;82.79
75317;BME280;63913;51.492;10.368;2024-03-08T09:30:52;98492.63;;;2.33;82.54
75317;BME280;63913;51.492;10.368;2024-03-08T09:33:17;98487.19;;;2.58;82.22
75317;BME280;63913;51.492;10.368;2024-03-08T09:35:45;98484.41;;;3.02;80.65
75317;BME280;63913;51.492;10.368;2024-03-08T09:38:12;98475.78;;;3.49;79.84
75317;BME280;63913;51.492;10.368;2024-03-08T09:40:40;98463.16;;;3.86;76.23
75317;BME280;63913;51.492;10.368;2024-03-08T09:43:06;98468.44;;;4.08;75.65
75317;BME280;63913;51.492;10.368;2024-03-08T09:45:35;98461.31;;;4.55;74.88
75317;BME280;63913;51.492;10.368;2024-03-08T09:48:01;98462.25;;;4.96;73.25
75317;BME280;63913;51.492;10.368;2024-03-08T09:50:26;98449.34;;;5.31;72.82
75317;BME280;63913;51.492;10.368;2024-03-08T09:52:55;98439.13;;;5.51;69.83
75317;BME280;63913;51.492;10.368;2024-03-08T09:55:22;98451.78;;;5.70;68.82
75317;BME280;63913;51.492;10.368;2024-03-08T09:57:48;98442.09;;;5.82;67.02
75317;BME280;63913;51.492;10.368;2024-03-08T10:00:33;98439.25;;;6.18;66.95
75317;BME280;63913;51.492;10.368;2024-03-08T10:03:02;98425.38;;;6.33;66.34
75317;BME280;63913;51.492;10.368;2024-03-08T10:05:28;98423.16;;;6.65;66.48
75317;BME280;63913;51.492;10.368;2024-03-08T10:07:53;98415.25;;;6.59;63.03
75317;BME280;63913;51.492;10.368;2024-03-08T10:10:19;98411.94;;;6.85;63.73
75317;BME280;63913;51.492;10.368;2024-03-08T10:12:45;98406.28;;;6.94;63.44
75317;BME280;63913;51.492;10.368;2024-03-08T10:15:16;98400.81;;;7.08;62.94
75317;BME280;63913;51.492;10.368;2024-03-08T10:17:42;98393.63;;;7.22;61.84
75317;BME280;63913;51.492;10.368;2024-03-08T10:20:19;98390.19;;;7.47;60.62
75317;BME280;63913;51.492;10.368;2024-03-08T10:22:44;98386.22;;;7.56;62.06
75317;BME280;63913;51.492;10.368;2024-03-08T10:25:11;98382.69;;;7.78;61.17
75317;BME280;63913;51.492;10.368;2024-03-08T10:27:38;98381.72;;;7.75;59.54
75317;BME280;63913;51.492;10.368;2024-03-08T10:30:06;98381.56;;;7.70;58.71
75317;BME280;63913;51.492;10.368;2024-03-08T10:32:35;98360.75;;;7.86;59.98
75317;BME280;63913;51.492;10.368;2024-03-08T10:35:00;98370.88;;;8.10;58.51
75317;BME280;63913;51.492;10.368;2024-03-08T10:37:32;98366.09;;;8.22;58.42
75317;BME280;63913;51.492;10.368;2024-03-08T10:40:04;98363.66;;;7.98;57.99
75317;BME280;63913;51.492;10.368;2024-03-08T10:42:52;98373.31;;;8.07;58.13
75317;BME280;63913;51.492;10.368;2024-03-08T10:45:29;98379.31;;;8.08;58.34
75317;BME280;63913;51.492;10.368;2024-03-08T10:50:49;98372.22;;;7.99;57.98
75317;BME280;63913;51.492;10.368;2024-03-08T10:53:17;98372.69;;;7.87;58.63
75317;BME280;63913;51.492;10.368;2024-03-08T10:55:44;98358.31;;;7.91;58.78
75317;BME280;63913;51.492;10.368;2024-03-08T10:58:10;98364.88;;;8.11;58.07
75317;BME280;63913;51.492;10.368;2024-03-08T11:00:36;98358.56;;;8.27;57.69
75317;BME280;63913;51.492;10.368;2024-03-08T11:03:03;98362.16;;;8.05;58.01
75317;BME280;63913;51.492;10.368;2024-03-08T11:05:36;98345.59;;;8.22;57.69
75317;BME280;63913;51.492;10.368;2024-03-08T11:08:26;98349.19;;;8.29;57.19
75317;BME280;63913;51.492;10.368;2024-03-08T11:10:52;98334.63;;;8.26;56.04
75317;BME280;63913;51.492;10.368;2024-03-08T11:13:39;98340.13;;;8.10;56.30
75317;BME280;63913;51.492;10.368;2024-03-08T11:16:12;98325.00;;;8.18;55.87
75317;BME280;63913;51.492;10.368;2024-03-08T11:18:38;98324.63;;;8.05;56.70
75317;BME280;63913;51.492;10.368;2024-03-08T11:21:04;98328.19;;;8.11;55.99
75317;BME280;63913;51.492;10.368;2024-03-08T11:23:33;98327.56;;;8.18;56.23
75317;BME280;63913;51.492;10.368;2024-03-08T11:25:59;98311.13;;;8.39;55.75
75317;BME280;63913;51.492;10.368;2024-03-08T11:28:25;98312.66;;;8.33;56.08
75317;BME280;63913;51.492;10.368;2024-03-08T11:33:36;98311.44;;;8.52;55.93
75317;BME280;63913;51.492;10.368;2024-03-08T11:36:07;98303.78;;;8.53;55.62
75317;BME280;63913;51.492;10.368;2024-03-08T11:38:46;98317.44;;;8.52;54.76
75317;BME280;63913;51.492;10.368;2024-03-08T11:41:21;98315.84;;;8.56;54.22
75317;BME280;63913;51.492;10.368;2024-03-08T11:43:47;98311.06;;;8.38;54.03
75317;BME280;63913;51.492;10.368;2024-03-08T11:46:14;98298.25;;;8.38;53.96
75317;BME280;63913;51.492;10.368;2024-03-08T11:48:41;98303.03;;;8.27;53.75
75317;BME280;63913;51.492;10.368;2024-03-08T11:51:11;98307.84;;;8.45;53.97
75317;BME280;63913;51.492;10.368;2024-03-08T11:53:38;98300.09;;;8.43;54.25
75317;BME280;63913;51.492;10.368;2024-03-08T11:56:10;98294.31;;;8.49;53.77
75317;BME280;63913;51.492;10.368;2024-03-08T11:58:37;98286.72;;;8.54;54.14
75317;BME280;63913;51.492;10.368;2024-03-08T12:01:07;98293.88;;;8.65;54.92
75317;BME280;63913;51.492;10.368;2024-03-08T12:03:40;98275.31;;;8.74;54.36
75317;BME280;63913;51.492;10.368;2024-03-08T12:06:08;98278.38;;;8.61;54.36
75317;BME280;63913;51.492;10.368;2024-03-08T12:08:35;98281.81;;;8.61;55.74
75317;BME280;63913;51.492;10.368;2024-03-08T12:11:00;98279.09;;;8.88;54.85
75317;BME280;63913;51.492;10.368;2024-03-08T12:13:30;98276.66;;;8.94;53.89
75317;BME280;63913;51.492;10.368;2024-03-08T12:16:01;98282.91;;;9.04;52.81
75317;BME280;63913;51.492;10.368;2024-03-08T12:18:29;98273.19;;;8.91;52.63
75317;BME280;63913;51.492;10.368;2024-03-08T12:21:09;98264.50;;;8.86;53.76
75317;BME280;63913;51.492;10.368;2024-03-08T12:23:47;98273.13;;;8.89;54.80
75317;BME280;63913;51.492;10.368;2024-03-08T12:26:25;98269.44;;;9.12;55.74
75317;BME280;63913;51.492;10.368;2024-03-08T12:28:52;98267.66;;;9.10;56.36
75317;BME280;63913;51.492;10.368;2024-03-08T12:31:18;98251.44;;;9.11;55.80
75317;BME280;63913;51.492;10.368;2024-03-08T12:33:52;98265.31;;;9.19;56.59
75317;BME280;63913;51.492;10.368;2024-03-08T12:36:20;98226.31;;;8.96;56.10
75317;BME280;63913;51.492;10.368;2024-03-08T12:38:48;98244.63;;;9.11;57.04
75317;BME280;63913;51.492;10.368;2024-03-08T12:41:18;98244.25;;;8.96;56.64
75317;BME280;63913;51.492;10.368;2024-03-08T12:43:47;98247.88;;;9.04;57.13
75317;BME280;63913;51.492;10.368;2024-03-08T12:46:16;98244.75;;;9.17;57.07
75317;BME280;63913;51.492;10.368;2024-03-08T12:48:45;98236.22;;;9.18;56.75
75317;BME280;63913;51.492;10.368;2024-03-08T12:51:17;98239.22;;;9.37;56.65
75317;BME280;63913;51.492;10.368;2024-03-08T12:53:43;98227.16;;;9.33;57.04
75317;BME280;63913;51.492;10.368;2024-03-08T12:56:32;98235.03;;;9.40;55.96
75317;BME280;63913;51.492;10.368;2024-03-08T12:59:02;98224.69;;;9.37;56.66
75317;BME280;63913;51.492;10.368;2024-03-08T13:01:28;98214.78;;;9.15;56.45
75317;BME280;63913;51.492;10.368;2024-03-08T13:03:54;98216.75;;;9.27;56.65